This is the latest recevied weather packets stored in our database for station/object OK2CME-6. If no packets are shown the sender has not sent any weather packets the latest 10 day(s).
| Time | Temp. | Humidity | Pressure | Rain* | Wind** | Luminosity | Snow |
|---|---|---|---|---|---|---|---|
| 1788599242 | 15.56° C | 80% | 1023.9 hPa | 0 mm | - | 523 W/m² | - |
| 1788598042 | 13.89° C | 86% | 1023.8 hPa | 0 mm | - | 181 W/m² | - |
| 1788596842 | 13.33° C | 87% | 1023.4 hPa | 0 mm | - | 162 W/m² | - |
| 1788595642 | 13.33° C | 88% | 1023 hPa | 0 mm | - | 101 W/m² | - |
| 1788594442 | 12.78° C | 89% | 1023 hPa | 0 mm | - | 52 W/m² | - |
| 1788593242 | 12.78° C | 89% | 1022.5 hPa | 0.25 mm | - | 38 W/m² | - |
| 1788592042 | 12.78° C | 89% | 1022.9 hPa | 0.51 mm | - | 41 W/m² | - |
| 1788590842 | 12.78° C | 89% | 1022.2 hPa | 0.25 mm | - | 24 W/m² | - |
| 1788589642 | 13.33° C | 89% | 1022 hPa | 0.25 mm | - | 19 W/m² | - |
| 1788588442 | 14.44° C | 89% | 1022.5 hPa | 0 mm | - | 14 W/m² | - |
| 1788564442 | 21.11° C | 61% | 1017.3 hPa | 0 mm | - | 0 W/m² | - |
| 1788562042 | 21.11° C | 60% | 1017.2 hPa | 0 mm | - | 0 W/m² | - |
| 1788560842 | 21.11° C | 60% | 1017.4 hPa | 0 mm | - | 0 W/m² | - |
| 1788559642 | 21.67° C | 59% | 1017.3 hPa | 0 mm | - | 0 W/m² | - |
| 1788557242 | 21.67° C | 58% | 1017.5 hPa | 0 mm | - | 0 W/m² | - |
| 1788554842 | 22.78° C | 55% | 1017.3 hPa | 0 mm | - | 0 W/m² | - |
| 1788553642 | 23.33° C | 54% | 1017.7 hPa | 0 mm | - | 0 W/m² | - |
| 1788552442 | 23.33° C | 54% | 1017.9 hPa | 0 mm | - | 0 W/m² | - |
| 1788551242 | 23.89° C | 54% | 1018.2 hPa | 0 mm | - | 0 W/m² | - |
| 1788550042 | 23.89° C | 54% | 1018.5 hPa | 0 mm | - | 0 W/m² | - |
| 1788548842 | 23.89° C | 54% | 1018.4 hPa | 0 mm | - | 0 W/m² | - |
| 1788547642 | 23.89° C | 55% | 1018.4 hPa | 0 mm | - | 0 W/m² | - |
| 1788546442 | 23.89° C | 54% | 1017.9 hPa | 0 mm | - | 0 W/m² | - |
| 1788544042 | 25° C | 51% | 1017.6 hPa | 0 mm | - | 4 W/m² | - |
| 1788542842 | 25.56° C | 49% | 1017.5 hPa | 0 mm | - | 14 W/m² | - |
* Rain latest hour (hover to see other rain measurements)
** Current wind speed in m/s (hover to see current wind gust speed)